Time;durP1;ratioP1;P1;durP2;ratioP2;P2;SDS_P1;SDS_P2;PMS_P1;PMS_P2;Temp;Humidity;BMP_temperature;BMP_pressure;BME280_temperature;BME280_humidity;BME280_pressure;Samples;Min_cycle;Max_cycle;Signal;HPM_P1;HPM_P2
2023/05/17 00:00:25;;;;;;;4.40;2.00;;;;;;;;;;5044175;28;20320;-64
2023/05/17 00:02:52;;;;;;;2.43;1.50;;;;;;;;;;5042249;28;20213;-64
2023/05/17 00:05:20;;;;;;;2.90;1.60;;;;;;;;;;5043859;28;20206;-63
2023/05/17 00:07:48;;;;;;;3.67;1.67;;;;;;;;;;5043409;28;20217;-62
2023/05/17 00:10:15;;;;;;;5.83;2.57;;;;;;;;;;5059583;28;20258;-63
2023/05/17 00:12:43;;;;;;;2.23;1.43;;;;;;;;;;5055486;28;20259;-63
2023/05/17 00:15:10;;;;;;;4.50;1.90;;;;;;;;;;5060803;28;20205;-63
2023/05/17 00:17:38;;;;;;;3.83;1.60;;;;;;;;;;5067022;28;20587;-62
2023/05/17 00:20:06;;;;;;;3.73;1.70;;;;;;;;;;5040294;28;20306;-64
2023/05/17 00:22:33;;;;;;;1.90;1.70;;;;;;;;;;5065319;28;20209;-64
2023/05/17 00:25:01;;;;;;;4.40;1.70;;;;;;;;;;5069956;28;20261;-64
2023/05/17 00:27:28;;;;;;;2.30;1.67;;;;;;;;;;5059880;28;20221;-62
2023/05/17 00:29:56;;;;;;;3.00;1.90;;;;;;;;;;5048296;28;20202;-64
2023/05/17 00:32:23;;;;;;;2.13;1.70;;;;;;;;;;5047184;28;20209;-62
2023/05/17 00:34:50;;;;;;;8.17;1.77;;;;;;;;;;5049738;28;20279;-64
2023/05/17 00:37:18;;;;;;;4.27;1.50;;;;;;;;;;5069635;28;20584;-63
2023/05/17 00:39:45;;;;;;;3.90;1.90;;;;;;;;;;5051075;28;20232;-63
2023/05/17 00:42:13;;;;;;;3.10;1.60;;;;;;;;;;5066989;28;20656;-63
2023/05/17 00:44:41;;;;;;;5.07;1.53;;;;;;;;;;5064095;28;20202;-64
2023/05/17 00:47:08;;;;;;;5.63;1.70;;;;;;;;;;5052483;28;20221;-63
2023/05/17 00:49:35;;;;;;;4.47;1.93;;;;;;;;;;5040881;28;20232;-64
2023/05/17 00:52:03;;;;;;;2.90;1.53;;;;;;;;;;5062261;28;20297;-64
2023/05/17 00:54:31;;;;;;;5.47;2.40;;;;;;;;;;5047901;28;20259;-62
2023/05/17 00:57:00;;;;;;;3.03;1.63;;;;;;;;;;5031369;28;20233;-64
2023/05/17 00:59:27;;;;;;;4.50;1.80;;;;;;;;;;5062250;28;20222;-63
2023/05/17 01:01:55;;;;;;;3.53;1.93;;;;;;;;;;5028224;28;20598;-63
2023/05/17 01:04:23;;;;;;;3.13;1.80;;;;;;;;;;5054251;28;20228;-64
2023/05/17 01:06:51;;;;;;;4.33;1.50;;;;;;;;;;5055245;28;20201;-63
2023/05/17 01:09:18;;;;;;;2.73;1.70;;;;;;;;;;5042669;28;20205;-64
2023/05/17 01:12:07;;;;;;;4.17;1.80;;;;;;;;;;5058842;28;20688;-63
2023/05/17 01:14:51;;;;;;;5.47;1.90;;;;;;;;;;5064005;28;20212;-62
2023/05/17 01:17:39;;;;;;;3.20;1.73;;;;;;;;;;5032404;28;20221;-63
2023/05/17 01:20:13;;;;;;;3.60;2.17;;;;;;;;;;5042813;28;20225;-64
2023/05/17 01:22:51;;;;;;;5.43;1.87;;;;;;;;;;5044335;28;20660;-64
2023/05/17 01:25:24;;;;;;;4.63;2.53;;;;;;;;;;5065364;28;20607;-63
2023/05/17 01:27:53;;;;;;;3.83;1.80;;;;;;;;;;5041335;28;20233;-64
2023/05/17 01:30:22;;;;;;;4.43;1.83;;;;;;;;;;5068488;28;20248;-64
2023/05/17 01:32:50;;;;;;;4.50;1.50;;;;;;;;;;5057547;28;20213;-63
2023/05/17 01:35:17;;;;;;;3.07;1.90;;;;;;;;;;5045170;28;20212;-63
2023/05/17 01:37:45;;;;;;;1.70;1.60;;;;;;;;;;5060674;28;20229;-63
2023/05/17 01:40:12;;;;;;;4.03;1.90;;;;;;;;;;5064896;28;20275;-64
2023/05/17 01:42:42;;;;;;;3.23;1.90;;;;;;;;;;5061371;28;20213;-64
2023/05/17 01:45:12;;;;;;;3.80;1.60;;;;;;;;;;5058196;28;20201;-64
2023/05/17 01:47:48;;;;;;;6.03;1.90;;;;;;;;;;5058332;28;20692;-62
2023/05/17 01:50:17;;;;;;;5.67;1.60;;;;;;;;;;5047255;28;20984;-63
2023/05/17 01:52:50;;;;;;;3.03;1.60;;;;;;;;;;5060257;28;20209;-62
2023/05/17 01:55:23;;;;;;;2.07;1.70;;;;;;;;;;5053323;28;20231;-64
2023/05/17 01:57:53;;;;;;;4.27;1.70;;;;;;;;;;5046286;28;20279;-65
2023/05/17 02:00:21;;;;;;;2.53;2.00;;;;;;;;;;5067421;28;20275;-63
2023/05/17 02:02:49;;;;;;;4.67;1.70;;;;;;;;;;5059450;28;20204;-63
2023/05/17 02:05:16;;;;;;;3.80;1.87;;;;;;;;;;5060346;28;20305;-62
2023/05/17 02:07:44;;;;;;;3.30;2.23;;;;;;;;;;5038679;28;20222;-62
2023/05/17 02:10:12;;;;;;;5.67;1.80;;;;;;;;;;5030768;28;20213;-62
2023/05/17 02:12:39;;;;;;;3.60;1.70;;;;;;;;;;5050459;28;20261;-63
2023/05/17 02:15:10;;;;;;;3.97;1.97;;;;;;;;;;5036181;28;20586;-62
2023/05/17 02:17:40;;;;;;;2.23;1.70;;;;;;;;;;5044505;28;20528;-63
2023/05/17 02:20:10;;;;;;;2.30;1.80;;;;;;;;;;5064515;28;20276;-62
2023/05/17 02:22:38;;;;;;;6.00;2.00;;;;;;;;;;5055163;28;20672;-62
2023/05/17 02:25:06;;;;;;;4.33;1.80;;;;;;;;;;5066747;28;20209;-63
2023/05/17 02:27:33;;;;;;;3.57;1.63;;;;;;;;;;5051302;28;20316;-63
2023/05/17 02:30:02;;;;;;;5.50;1.73;;;;;;;;;;5042554;28;20205;-62
2023/05/17 02:32:30;;;;;;;2.17;1.80;;;;;;;;;;5031362;28;20213;-63
2023/05/17 02:34:58;;;;;;;3.47;1.50;;;;;;;;;;5045801;28;20217;-64
2023/05/17 02:37:26;;;;;;;3.07;1.83;;;;;;;;;;5034425;28;20229;-62
2023/05/17 02:39:53;;;;;;;3.27;1.87;;;;;;;;;;5049351;28;20249;-63
2023/05/17 02:42:21;;;;;;;4.77;1.73;;;;;;;;;;5049898;28;20205;-63
2023/05/17 02:44:51;;;;;;;3.57;1.90;;;;;;;;;;5072339;28;20599;-62
2023/05/17 02:47:20;;;;;;;3.00;1.93;;;;;;;;;;5046210;28;20224;-64
2023/05/17 02:49:47;;;;;;;4.70;1.83;;;;;;;;;;5068095;28;20682;-63
2023/05/17 02:52:15;;;;;;;3.10;1.80;;;;;;;;;;5066829;28;20208;-62
2023/05/17 02:54:42;;;;;;;3.27;2.43;;;;;;;;;;5068132;28;20300;-64
2023/05/17 02:57:10;;;;;;;5.20;2.00;;;;;;;;;;5064202;28;20236;-62
2023/05/17 02:59:38;;;;;;;4.93;1.80;;;;;;;;;;5050488;28;20212;-64
2023/05/17 03:02:05;;;;;;;4.57;1.90;;;;;;;;;;5057457;28;20251;-64
2023/05/17 03:04:33;;;;;;;4.23;1.77;;;;;;;;;;5060695;28;20216;-62
2023/05/17 03:07:00;;;;;;;4.97;1.87;;;;;;;;;;5036782;28;20932;-64
2023/05/17 03:09:33;;;;;;;5.73;1.80;;;;;;;;;;5037163;28;20217;-62
2023/05/17 03:12:03;;;;;;;4.83;2.03;;;;;;;;;;5044750;28;20272;-64
2023/05/17 03:14:31;;;;;;;6.00;1.80;;;;;;;;;;5059248;28;20244;-63
2023/05/17 03:16:58;;;;;;;3.97;2.03;;;;;;;;;;5046030;28;20240;-63
2023/05/17 03:19:26;;;;;;;6.07;1.90;;;;;;;;;;5036689;28;20579;-64
2023/05/17 03:21:53;;;;;;;2.17;1.90;;;;;;;;;;5069702;28;20227;-62
2023/05/17 03:24:21;;;;;;;2.27;1.90;;;;;;;;;;5038714;28;20202;-63
2023/05/17 03:26:48;;;;;;;3.53;2.20;;;;;;;;;;5041428;28;20217;-63
2023/05/17 03:29:16;;;;;;;3.23;1.83;;;;;;;;;;5063954;28;20205;-62
2023/05/17 03:31:43;;;;;;;2.80;1.70;;;;;;;;;;5039313;28;20220;-63
2023/05/17 03:34:11;;;;;;;5.33;2.13;;;;;;;;;;5051572;28;20197;-63
2023/05/17 03:36:39;;;;;;;5.20;2.10;;;;;;;;;;5056223;28;20215;-63
2023/05/17 03:39:06;;;;;;;4.97;1.70;;;;;;;;;;5057108;28;20234;-64
2023/05/17 03:41:34;;;;;;;3.57;1.90;;;;;;;;;;5058174;28;20229;-63
2023/05/17 03:44:01;;;;;;;4.07;2.00;;;;;;;;;;5051303;28;20535;-63
2023/05/17 03:46:29;;;;;;;3.00;2.00;;;;;;;;;;5051683;28;20213;-64
2023/05/17 03:48:56;;;;;;;3.23;1.93;;;;;;;;;;5043884;28;20594;-61
2023/05/17 03:51:24;;;;;;;3.97;1.90;;;;;;;;;;5064033;28;20197;-64
2023/05/17 03:53:58;;;;;;;6.97;2.00;;;;;;;;;;5037984;28;20451;-63
2023/05/17 03:56:26;;;;;;;3.17;1.90;;;;;;;;;;5057319;28;20227;-64
2023/05/17 03:58:53;;;;;;;3.87;2.17;;;;;;;;;;5032848;28;20865;-64
2023/05/17 04:01:21;;;;;;;3.77;1.90;;;;;;;;;;5041551;28;20939;-62
2023/05/17 04:03:48;;;;;;;4.43;2.27;;;;;;;;;;5055731;28;20287;-62
2023/05/17 04:06:17;;;;;;;4.63;1.93;;;;;;;;;;5040629;28;20300;-64
2023/05/17 04:08:44;;;;;;;2.70;1.60;;;;;;;;;;5059242;28;20283;-63
2023/05/17 04:11:12;;;;;;;4.43;2.00;;;;;;;;;;5030371;28;20232;-63
2023/05/17 04:13:40;;;;;;;2.80;1.80;;;;;;;;;;5051966;28;20205;-63
2023/05/17 04:16:08;;;;;;;5.97;2.00;;;;;;;;;;5033979;28;20216;-62
2023/05/17 04:18:38;;;;;;;6.00;1.80;;;;;;;;;;5037928;28;20221;-64
2023/05/17 04:21:06;;;;;;;2.83;1.80;;;;;;;;;;5055940;28;20218;-64
2023/05/17 04:23:33;;;;;;;2.93;1.70;;;;;;;;;;5044205;28;20400;-64
2023/05/17 04:26:02;;;;;;;2.60;1.70;;;;;;;;;;5039238;28;20244;-64
2023/05/17 04:28:30;;;;;;;4.17;2.00;;;;;;;;;;5059093;28;20248;-64
2023/05/17 04:30:58;;;;;;;4.47;1.87;;;;;;;;;;5046663;28;20213;-64
2023/05/17 04:33:25;;;;;;;2.43;1.87;;;;;;;;;;5061988;28;20204;-64
2023/05/17 04:35:56;;;;;;;6.87;1.90;;;;;;;;;;5064846;28;20202;-64
2023/05/17 04:38:23;;;;;;;3.90;1.80;;;;;;;;;;5062837;28;20245;-64
2023/05/17 04:40:51;;;;;;;4.40;1.77;;;;;;;;;;5074288;28;20225;-64
2023/05/17 04:43:18;;;;;;;7.67;2.10;;;;;;;;;;5052496;28;20197;-63
2023/05/17 04:45:46;;;;;;;3.50;1.77;;;;;;;;;;5050166;28;20302;-64
2023/05/17 04:48:15;;;;;;;4.00;1.77;;;;;;;;;;5060956;28;20231;-63
2023/05/17 04:50:45;;;;;;;3.67;2.10;;;;;;;;;;5083749;28;20308;-64
2023/05/17 04:53:14;;;;;;;5.77;2.60;;;;;;;;;;5052762;28;20201;-64
2023/05/17 04:55:41;;;;;;;4.17;1.70;;;;;;;;;;5066128;28;20206;-64
2023/05/17 04:58:09;;;;;;;4.67;1.73;;;;;;;;;;5078396;28;20221;-64
2023/05/17 05:00:36;;;;;;;2.20;2.00;;;;;;;;;;5044101;28;20216;-63
2023/05/17 05:03:04;;;;;;;4.93;2.27;;;;;;;;;;5040419;28;20720;-63
2023/05/17 05:05:31;;;;;;;6.30;2.23;;;;;;;;;;5067341;28;20221;-64
2023/05/17 05:07:59;;;;;;;3.87;2.27;;;;;;;;;;5043112;28;20239;-64
2023/05/17 05:10:29;;;;;;;4.03;2.00;;;;;;;;;;5046423;28;20478;-62
2023/05/17 05:12:57;;;;;;;3.30;1.97;;;;;;;;;;5040378;28;20213;-64
2023/05/17 05:15:24;;;;;;;4.00;2.10;;;;;;;;;;5062461;28;20215;-63
2023/05/17 05:17:52;;;;;;;5.53;1.90;;;;;;;;;;5076353;28;20687;-64
2023/05/17 05:20:19;;;;;;;3.43;1.73;;;;;;;;;;5075939;28;20200;-63
2023/05/17 05:22:47;;;;;;;3.83;1.83;;;;;;;;;;5044967;28;20217;-64
2023/05/17 05:25:14;;;;;;;2.77;1.73;;;;;;;;;;5057675;28;20687;-64
2023/05/17 05:27:42;;;;;;;3.27;1.90;;;;;;;;;;5062116;28;20217;-62
2023/05/17 05:30:09;;;;;;;4.47;1.60;;;;;;;;;;5062195;28;20202;-64
2023/05/17 05:32:37;;;;;;;2.83;1.63;;;;;;;;;;5042245;28;20408;-62
2023/05/17 05:35:05;;;;;;;4.63;1.63;;;;;;;;;;5062729;28;20732;-63
2023/05/17 05:37:32;;;;;;;3.37;1.57;;;;;;;;;;5062837;28;20320;-64
2023/05/17 05:40:00;;;;;;;3.83;1.45;;;;;;;;;;5040881;28;20217;-64
2023/05/17 05:42:28;;;;;;;2.75;1.30;;;;;;;;;;5041083;28;20519;-64
2023/05/17 05:44:55;;;;;;;5.75;1.60;;;;;;;;;;5056219;28;20263;-65
2023/05/17 05:47:22;;;;;;;3.28;1.63;;;;;;;;;;5045603;28;20220;-63
2023/05/17 05:49:50;;;;;;;2.42;1.67;;;;;;;;;;5070174;28;20213;-63
2023/05/17 05:52:17;;;;;;;2.97;1.50;;;;;;;;;;5044495;28;20659;-63
2023/05/17 05:54:45;;;;;;;5.20;1.60;;;;;;;;;;5060241;28;20201;-64
2023/05/17 05:57:12;;;;;;;4.70;1.80;;;;;;;;;;5060585;28;20221;-65
2023/05/17 05:59:40;;;;;;;1.75;1.52;;;;;;;;;;5052835;28;20429;-63
2023/05/17 06:02:07;;;;;;;5.05;1.60;;;;;;;;;;5070365;28;20608;-63
2023/05/17 06:04:35;;;;;;;3.33;1.70;;;;;;;;;;5047880;28;20202;-64
2023/05/17 06:07:12;;;;;;;3.58;1.75;;;;;;;;;;5054014;28;20343;-64
2023/05/17 06:09:39;;;;;;;3.92;1.70;;;;;;;;;;5067365;28;20201;-65
2023/05/17 06:12:07;;;;;;;3.38;1.95;;;;;;;;;;5039935;28;20209;-64
2023/05/17 06:14:36;;;;;;;5.10;1.90;;;;;;;;;;5037671;28;20209;-64
2023/05/17 06:17:04;;;;;;;4.82;1.80;;;;;;;;;;5050706;28;20216;-64
2023/05/17 06:19:31;;;;;;;4.43;1.70;;;;;;;;;;5058235;28;23264;-63
2023/05/17 06:21:59;;;;;;;3.77;2.10;;;;;;;;;;5051021;28;20233;-64
2023/05/17 06:24:26;;;;;;;4.70;2.23;;;;;;;;;;5048162;28;20197;-64
2023/05/17 06:26:54;;;;;;;3.90;1.90;;;;;;;;;;5063104;28;20205;-64
2023/05/17 06:29:22;;;;;;;7.33;2.20;;;;;;;;;;5052951;28;20194;-64
2023/05/17 06:31:50;;;;;;;11.00;2.23;;;;;;;;;;5056106;28;20202;-64
2023/05/17 06:34:17;;;;;;;4.77;2.37;;;;;;;;;;5055053;28;20210;-63
2023/05/17 06:36:45;;;;;;;5.90;2.17;;;;;;;;;;5052948;28;20221;-63
2023/05/17 06:39:12;;;;;;;9.37;2.70;;;;;;;;;;5050805;28;20301;-63
2023/05/17 06:41:39;;;;;;;5.00;2.30;;;;;;;;;;5065851;28;20260;-64
2023/05/17 06:44:07;;;;;;;5.43;2.20;;;;;;;;;;5056649;28;20260;-63
2023/05/17 06:46:34;;;;;;;5.03;2.40;;;;;;;;;;5057329;28;20703;-63
2023/05/17 06:49:02;;;;;;;4.60;2.27;;;;;;;;;;5050838;28;20233;-64
2023/05/17 06:51:29;;;;;;;5.70;2.23;;;;;;;;;;5052733;28;20233;-64
2023/05/17 06:53:57;;;;;;;7.77;2.43;;;;;;;;;;5065104;28;20641;-64
2023/05/17 06:56:24;;;;;;;5.07;2.30;;;;;;;;;;5053916;28;20201;-64
2023/05/17 06:58:52;;;;;;;5.17;2.30;;;;;;;;;;5054989;28;20237;-65
2023/05/17 07:01:19;;;;;;;7.77;2.33;;;;;;;;;;5051175;28;20222;-63
2023/05/17 07:03:47;;;;;;;6.80;2.03;;;;;;;;;;5059089;28;20225;-64
2023/05/17 07:06:14;;;;;;;2.83;2.00;;;;;;;;;;5053842;28;20234;-64
2023/05/17 07:08:43;;;;;;;8.83;2.67;;;;;;;;;;5058477;28;20221;-64
2023/05/17 07:11:10;;;;;;;5.00;2.30;;;;;;;;;;5057041;28;20202;-62
2023/05/17 07:13:38;;;;;;;5.43;2.40;;;;;;;;;;5055268;28;20218;-62
2023/05/17 07:16:07;;;;;;;6.57;2.33;;;;;;;;;;5051329;28;20206;-62
2023/05/17 07:18:34;;;;;;;4.53;2.57;;;;;;;;;;5056305;28;20226;-63
2023/05/17 07:21:02;;;;;;;4.87;2.20;;;;;;;;;;5066787;28;20216;-63
2023/05/17 07:23:29;;;;;;;5.27;2.33;;;;;;;;;;5064017;28;20573;-63
2023/05/17 07:25:57;;;;;;;5.10;2.57;;;;;;;;;;5059506;28;20247;-63
2023/05/17 07:28:25;;;;;;;6.30;2.70;;;;;;;;;;5052873;28;20347;-63
2023/05/17 07:30:52;;;;;;;7.63;2.60;;;;;;;;;;5056261;28;20259;-63
2023/05/17 07:33:19;;;;;;;5.67;2.50;;;;;;;;;;5054135;28;20280;-63
2023/05/17 07:35:47;;;;;;;5.30;2.20;;;;;;;;;;5054996;28;20193;-64
2023/05/17 07:38:14;;;;;;;5.70;2.40;;;;;;;;;;5049309;28;20229;-63
2023/05/17 07:40:42;;;;;;;3.17;2.23;;;;;;;;;;5054816;28;21002;-63
2023/05/17 07:43:09;;;;;;;3.80;2.30;;;;;;;;;;5053737;28;20410;-63
2023/05/17 07:45:37;;;;;;;5.90;2.63;;;;;;;;;;5051611;28;20228;-62
2023/05/17 07:48:04;;;;;;;5.07;2.37;;;;;;;;;;5059338;28;20243;-63
2023/05/17 07:50:32;;;;;;;5.87;2.57;;;;;;;;;;5050364;28;20264;-64
2023/05/17 07:52:59;;;;;;;4.17;2.23;;;;;;;;;;5052655;28;20213;-64
2023/05/17 07:55:27;;;;;;;2.60;2.40;;;;;;;;;;5058701;28;20614;-64
2023/05/17 07:57:55;;;;;;;6.70;2.60;;;;;;;;;;5056622;28;20225;-63
2023/05/17 08:00:25;;;;;;;7.03;3.90;;;;;;;;;;5058686;28;20225;-64
2023/05/17 08:02:52;;;;;;;6.47;4.10;;;;;;;;;;5051336;28;20339;-64
2023/05/17 08:05:20;;;;;;;5.80;2.67;;;;;;;;;;5049611;28;20202;-63
2023/05/17 08:07:48;;;;;;;5.27;3.03;;;;;;;;;;5051735;28;20269;-63
2023/05/17 08:10:15;;;;;;;6.97;2.60;;;;;;;;;;5052175;28;20200;-64
2023/05/17 08:12:43;;;;;;;3.70;2.53;;;;;;;;;;5055684;28;20283;-64
2023/05/17 08:15:11;;;;;;;7.17;2.50;;;;;;;;;;5046277;28;20300;-61
2023/05/17 08:17:38;;;;;;;4.23;2.40;;;;;;;;;;5055649;28;20225;-64
2023/05/17 08:20:06;;;;;;;8.27;2.73;;;;;;;;;;5046448;28;20202;-64
2023/05/17 08:22:35;;;;;;;4.97;2.60;;;;;;;;;;5052531;28;20238;-62
2023/05/17 08:25:06;;;;;;;3.43;2.30;;;;;;;;;;5058954;28;20205;-63
2023/05/17 08:27:33;;;;;;;5.30;2.70;;;;;;;;;;5048256;28;20237;-62
2023/05/17 08:30:01;;;;;;;5.80;2.50;;;;;;;;;;5050362;28;20204;-64
2023/05/17 08:32:29;;;;;;;4.63;2.43;;;;;;;;;;5047644;28;20260;-63
2023/05/17 08:34:56;;;;;;;2.80;2.20;;;;;;;;;;5056116;28;20201;-63
2023/05/17 08:37:24;;;;;;;5.67;2.57;;;;;;;;;;5054032;28;20267;-65
2023/05/17 08:39:51;;;;;;;5.63;2.70;;;;;;;;;;5056744;28;20202;-63
2023/05/17 08:42:21;;;;;;;4.37;2.70;;;;;;;;;;5054603;28;20229;-63
2023/05/17 08:44:49;;;;;;;3.70;2.60;;;;;;;;;;5051377;28;20201;-63
2023/05/17 08:47:24;;;;;;;4.83;2.70;;;;;;;;;;5055963;28;20217;-63
2023/05/17 08:49:54;;;;;;;7.13;2.70;;;;;;;;;;5055904;28;20256;-64
2023/05/17 08:52:22;;;;;;;5.33;2.67;;;;;;;;;;5044609;28;20206;-63
2023/05/17 08:54:49;;;;;;;6.27;2.50;;;;;;;;;;5075494;28;20206;-63
2023/05/17 08:57:17;;;;;;;6.80;2.90;;;;;;;;;;5064731;28;20788;-64
2023/05/17 08:59:45;;;;;;;3.47;2.50;;;;;;;;;;5054056;28;20667;-63
2023/05/17 09:02:14;;;;;;;6.47;2.90;;;;;;;;;;5059953;28;20562;-63
2023/05/17 09:04:42;;;;;;;7.67;3.10;;;;;;;;;;5055410;28;20460;-64
2023/05/17 09:07:10;;;;;;;3.80;2.67;;;;;;;;;;5061274;28;20304;-63
2023/05/17 09:09:37;;;;;;;3.93;2.60;;;;;;;;;;5067629;28;20204;-63
2023/05/17 09:12:05;;;;;;;4.30;2.60;;;;;;;;;;5064681;28;20395;-63
2023/05/17 09:14:36;;;;;;;4.87;2.97;;;;;;;;;;5054872;28;20654;-62
2023/05/17 09:17:04;;;;;;;3.87;2.80;;;;;;;;;;5060099;28;20202;-63
2023/05/17 09:19:32;;;;;;;4.33;3.03;;;;;;;;;;5057288;28;20209;-64
2023/05/17 09:22:01;;;;;;;3.73;2.70;;;;;;;;;;5057689;28;20236;-63
2023/05/17 09:24:30;;;;;;;4.63;2.20;;;;;;;;;;5055503;28;20218;-63
2023/05/17 09:27:02;;;;;;;6.03;3.00;;;;;;;;;;5060965;28;20292;-63
2023/05/17 09:29:33;;;;;;;3.40;2.40;;;;;;;;;;5053395;28;20205;-64
2023/05/17 09:32:16;;;;;;;4.10;2.73;;;;;;;;;;5054264;28;20206;-64
2023/05/17 09:34:45;;;;;;;3.50;2.73;;;;;;;;;;5045957;28;20205;-64
2023/05/17 09:37:14;;;;;;;7.63;2.80;;;;;;;;;;5059029;28;20251;-65
2023/05/17 09:39:43;;;;;;;5.80;2.73;;;;;;;;;;5061015;28;20207;-64
2023/05/17 09:42:11;;;;;;;5.30;2.60;;;;;;;;;;5069933;28;20229;-64
2023/05/17 09:44:53;;;;;;;3.87;2.70;;;;;;;;;;5049567;28;20302;-64
2023/05/17 09:47:21;;;;;;;3.57;2.40;;;;;;;;;;5043637;28;20213;-65
2023/05/17 09:49:49;;;;;;;3.27;2.60;;;;;;;;;;5065501;28;20208;-64
2023/05/17 09:52:19;;;;;;;5.53;2.80;;;;;;;;;;5061039;28;20334;-63
2023/05/17 09:54:53;;;;;;;3.80;2.60;;;;;;;;;;5060255;28;20209;-65
2023/05/17 09:57:21;;;;;;;4.47;2.77;;;;;;;;;;5063216;28;20307;-64
2023/05/17 09:59:49;;;;;;;6.67;3.30;;;;;;;;;;5073576;28;20216;-62
2023/05/17 10:02:21;;;;;;;4.37;2.97;;;;;;;;;;5060779;28;20765;-63
2023/05/17 10:05:05;;;;;;;4.53;2.80;;;;;;;;;;5063209;28;20201;-63
2023/05/17 10:07:34;;;;;;;5.77;2.87;;;;;;;;;;5058202;28;20797;-63
2023/05/17 10:10:02;;;;;;;5.70;3.70;;;;;;;;;;5033510;28;20210;-64
2023/05/17 10:12:34;;;;;;;7.67;4.20;;;;;;;;;;5053109;28;20202;-64
2023/05/17 10:15:02;;;;;;;4.23;2.77;;;;;;;;;;5053260;28;20212;-63
2023/05/17 10:17:29;;;;;;;5.50;3.03;;;;;;;;;;5035085;28;20234;-63
2023/05/17 10:19:58;;;;;;;8.07;3.47;;;;;;;;;;5059135;28;20223;-64
2023/05/17 10:22:27;;;;;;;5.93;3.30;;;;;;;;;;5057838;28;20232;-64
2023/05/17 10:24:55;;;;;;;4.13;3.00;;;;;;;;;;5057571;28;20223;-63
2023/05/17 10:27:23;;;;;;;3.70;3.17;;;;;;;;;;5059241;28;20275;-64
2023/05/17 10:29:51;;;;;;;4.03;2.90;;;;;;;;;;5061179;28;20289;-64
2023/05/17 10:32:21;;;;;;;5.03;3.30;;;;;;;;;;5043065;28;20209;-64
2023/05/17 10:34:49;;;;;;;4.00;3.30;;;;;;;;;;5037224;28;20301;-63
2023/05/17 10:37:33;;;;;;;3.73;2.83;;;;;;;;;;5059205;28;20364;-64
2023/05/17 10:40:00;;;;;;;5.00;2.83;;;;;;;;;;5051647;28;20210;-64
2023/05/17 10:42:28;;;;;;;4.17;2.80;;;;;;;;;;5053139;28;20229;-63
2023/05/17 10:44:56;;;;;;;4.50;3.43;;;;;;;;;;5025843;28;20304;-63
2023/05/17 10:47:31;;;;;;;5.47;3.20;;;;;;;;;;5028365;28;20698;-63
2023/05/17 10:49:58;;;;;;;5.60;2.83;;;;;;;;;;5035433;28;20352;-62
2023/05/17 10:52:26;;;;;;;6.87;3.50;;;;;;;;;;5065667;28;20217;-65
2023/05/17 10:54:53;;;;;;;4.20;3.20;;;;;;;;;;5057094;28;20229;-64
2023/05/17 10:57:41;;;;;;;5.10;3.00;;;;;;;;;;5046810;28;20337;-64
2023/05/17 11:00:21;;;;;;;3.97;3.25;;;;;;;;;;5061187;28;20218;-65
2023/05/17 11:02:49;;;;;;;4.73;3.43;;;;;;;;;;5062997;28;20287;-63
2023/05/17 11:05:24;;;;;;;3.63;2.93;;;;;;;;;;5038279;28;20201;-64
2023/05/17 11:07:51;;;;;;;3.20;2.90;;;;;;;;;;5035391;28;20228;-64
2023/05/17 11:10:19;;;;;;;3.33;2.97;;;;;;;;;;5040637;28;20209;-64
2023/05/17 11:12:52;;;;;;;4.60;3.27;;;;;;;;;;5042610;28;20292;-63
2023/05/17 11:15:25;;;;;;;3.88;3.03;;;;;;;;;;5061385;28;20209;-65
2023/05/17 11:17:53;;;;;;;5.03;3.20;;;;;;;;;;5067955;28;20269;-64
2023/05/17 11:20:27;;;;;;;5.23;3.43;;;;;;;;;;5064027;28;20209;-63
2023/05/17 11:22:57;;;;;;;4.20;3.17;;;;;;;;;;5067893;28;20225;-65
2023/05/17 11:25:36;;;;;;;4.47;3.00;;;;;;;;;;5054251;28;20392;-64
2023/05/17 11:28:17;;;;;;;7.13;4.03;;;;;;;;;;5058240;28;20702;-63
2023/05/17 11:30:50;;;;;;;17.33;9.38;;;;;;;;;;5058096;28;20206;-63
2023/05/17 11:33:20;;;;;;;4.78;3.25;;;;;;;;;;5057032;28;20205;-64
2023/05/17 11:36:03;;;;;;;4.03;3.20;;;;;;;;;;5055970;28;20201;-64
2023/05/17 11:38:31;;;;;;;4.78;3.28;;;;;;;;;;5039331;28;20241;-63
2023/05/17 11:41:15;;;;;;;4.32;2.70;;;;;;;;;;5078143;28;20220;-64
2023/05/17 11:43:54;;;;;;;3.97;3.20;;;;;;;;;;5089241;28;20280;-64
2023/05/17 11:46:22;;;;;;;2.83;2.58;;;;;;;;;;5063613;28;20975;-64
2023/05/17 11:48:51;;;;;;;2.97;2.40;;;;;;;;;;5064203;28;20221;-64
2023/05/17 11:51:19;;;;;;;3.42;2.70;;;;;;;;;;5062253;28;20582;-64
2023/05/17 11:53:51;;;;;;;6.85;3.20;;;;;;;;;;5037429;28;20324;-64
2023/05/17 11:56:19;;;;;;;5.63;3.33;;;;;;;;;;5059264;28;20699;-63
2023/05/17 11:58:53;;;;;;;4.95;3.45;;;;;;;;;;5040121;28;20317;-63
2023/05/17 12:01:20;;;;;;;5.07;3.40;;;;;;;;;;5042626;28;20224;-63
2023/05/17 12:03:56;;;;;;;5.60;3.30;;;;;;;;;;5065275;28;20701;-63
2023/05/17 12:06:24;;;;;;;3.80;3.47;;;;;;;;;;5065568;28;20197;-63
2023/05/17 12:08:51;;;;;;;4.43;3.25;;;;;;;;;;5067528;28;20565;-63
2023/05/17 12:11:20;;;;;;;8.18;4.07;;;;;;;;;;5051452;28;20302;-63
2023/05/17 12:13:50;;;;;;;4.78;3.45;;;;;;;;;;5030165;28;20793;-62
2023/05/17 12:16:20;;;;;;;5.45;2.97;;;;;;;;;;5032046;28;20201;-63
2023/05/17 12:18:49;;;;;;;4.20;3.08;;;;;;;;;;5061450;28;20709;-63
2023/05/17 12:21:19;;;;;;;3.55;2.95;;;;;;;;;;5055295;28;20251;-63
2023/05/17 12:23:50;;;;;;;4.05;2.97;;;;;;;;;;5053833;28;20221;-64
2023/05/17 12:26:21;;;;;;;5.22;3.40;;;;;;;;;;5064590;28;20233;-64
2023/05/17 12:28:58;;;;;;;5.95;3.15;;;;;;;;;;5042077;28;20236;-64
2023/05/17 12:31:33;;;;;;;4.53;3.25;;;;;;;;;;5047956;28;20197;-62
2023/05/17 12:34:01;;;;;;;4.45;3.30;;;;;;;;;;5044677;28;20964;-63
2023/05/17 12:36:30;;;;;;;5.20;3.50;;;;;;;;;;5062447;28;20408;-62
2023/05/17 12:38:57;;;;;;;3.65;3.15;;;;;;;;;;5050410;28;20612;-64
2023/05/17 12:41:25;;;;;;;4.15;2.95;;;;;;;;;;5068519;28;20245;-62
2023/05/17 12:43:54;;;;;;;5.63;3.13;;;;;;;;;;5049413;28;20274;-64
2023/05/17 12:46:40;;;;;;;5.78;2.83;;;;;;;;;;5042747;28;20716;-64
2023/05/17 12:49:11;;;;;;;5.40;3.65;;;;;;;;;;5032982;28;20228;-63
2023/05/17 12:51:42;;;;;;;4.20;2.90;;;;;;;;;;5069560;28;20284;-64
2023/05/17 12:54:10;;;;;;;5.80;3.25;;;;;;;;;;5043302;28;20683;-63
2023/05/17 12:56:41;;;;;;;8.75;4.63;;;;;;;;;;5058935;28;20205;-63
2023/05/17 12:59:16;;;;;;;3.28;2.97;;;;;;;;;;5061229;28;20700;-63
2023/05/17 13:01:44;;;;;;;3.95;3.13;;;;;;;;;;5047885;28;20267;-63
2023/05/17 13:04:13;;;;;;;3.78;2.97;;;;;;;;;;5049876;28;20697;-64
2023/05/17 13:06:47;;;;;;;3.88;3.10;;;;;;;;;;5043625;28;20201;-64
2023/05/17 13:09:17;;;;;;;4.93;3.17;;;;;;;;;;5062861;28;20197;-65
2023/05/17 13:11:54;;;;;;;6.03;3.28;;;;;;;;;;5064514;28;20321;-64
2023/05/17 13:14:40;;;;;;;5.70;3.65;;;;;;;;;;5044680;28;20583;-64
2023/05/17 13:17:20;;;;;;;4.55;3.33;;;;;;;;;;5071756;28;20283;-64
2023/05/17 13:19:49;;;;;;;3.70;3.35;;;;;;;;;;5053225;28;20212;-64
2023/05/17 13:22:18;;;;;;;6.05;3.72;;;;;;;;;;5036943;28;20235;-63
2023/05/17 13:24:46;;;;;;;4.57;3.58;;;;;;;;;;5050850;28;20282;-62
2023/05/17 13:27:15;;;;;;;5.18;3.50;;;;;;;;;;5041267;28;20726;-63
2023/05/17 13:29:43;;;;;;;5.93;3.92;;;;;;;;;;5039783;28;20198;-63
2023/05/17 13:32:12;;;;;;;5.10;3.78;;;;;;;;;;5046473;28;20205;-63
2023/05/17 13:34:41;;;;;;;6.03;3.60;;;;;;;;;;5037081;28;20210;-63
2023/05/17 13:37:10;;;;;;;7.60;4.57;;;;;;;;;;5029510;28;20237;-63
2023/05/17 13:39:40;;;;;;;6.22;3.72;;;;;;;;;;5054027;28;20293;-64
2023/05/17 13:42:08;;;;;;;5.70;3.83;;;;;;;;;;5054904;28;20210;-64
2023/05/17 13:44:37;;;;;;;5.95;3.90;;;;;;;;;;5053338;28;20223;-64
2023/05/17 13:47:05;;;;;;;6.05;3.45;;;;;;;;;;5036273;28;20209;-63
2023/05/17 13:49:32;;;;;;;6.30;3.67;;;;;;;;;;5038690;28;20216;-63
2023/05/17 13:52:02;;;;;;;6.60;3.60;;;;;;;;;;5046478;28;20768;-64
2023/05/17 13:54:30;;;;;;;7.32;4.43;;;;;;;;;;5012981;28;20435;-64
2023/05/17 13:57:00;;;;;;;5.93;3.70;;;;;;;;;;5033882;28;20210;-63
2023/05/17 13:59:28;;;;;;;5.43;4.18;;;;;;;;;;5035507;28;20209;-64
2023/05/17 14:01:56;;;;;;;8.18;4.22;;;;;;;;;;5041056;28;20210;-64
2023/05/17 14:04:24;;;;;;;10.00;5.55;;;;;;;;;;5036798;28;20232;-63
2023/05/17 14:06:54;;;;;;;6.15;4.18;;;;;;;;;;5016743;28;20755;-64
2023/05/17 14:09:21;;;;;;;5.07;3.78;;;;;;;;;;5052940;28;20210;-64
2023/05/17 14:11:49;;;;;;;9.52;5.88;;;;;;;;;;5046409;28;20206;-62
2023/05/17 14:14:17;;;;;;;7.20;3.88;;;;;;;;;;5049500;28;20212;-64
2023/05/17 14:16:44;;;;;;;9.93;6.13;;;;;;;;;;5038782;28;20228;-64
2023/05/17 14:19:13;;;;;;;7.35;3.78;;;;;;;;;;5028469;28;20606;-64
2023/05/17 14:21:41;;;;;;;6.28;3.92;;;;;;;;;;5018325;28;20213;-64
2023/05/17 14:24:08;;;;;;;5.03;4.07;;;;;;;;;;5043051;28;20240;-64
2023/05/17 14:26:36;;;;;;;5.45;4.07;;;;;;;;;;5058836;28;20247;-63
2023/05/17 14:29:05;;;;;;;5.93;4.37;;;;;;;;;;5041778;28;20229;-62
2023/05/17 14:31:33;;;;;;;6.45;4.35;;;;;;;;;;5060101;28;20202;-62
2023/05/17 14:34:02;;;;;;;6.05;3.65;;;;;;;;;;5039457;28;20206;-65
2023/05/17 14:36:30;;;;;;;7.18;3.50;;;;;;;;;;5057464;28;20209;-64
2023/05/17 14:38:58;;;;;;;7.18;3.75;;;;;;;;;;5063919;28;20237;-64
2023/05/17 14:41:25;;;;;;;6.17;3.87;;;;;;;;;;5056870;28;20206;-63
2023/05/17 14:43:53;;;;;;;7.37;3.97;;;;;;;;;;5043882;28;20222;-63
2023/05/17 14:46:20;;;;;;;6.07;3.60;;;;;;;;;;5038532;28;20317;-62
2023/05/17 14:48:50;;;;;;;7.10;3.90;;;;;;;;;;5044469;28;20232;-63
2023/05/17 14:51:18;;;;;;;6.25;3.65;;;;;;;;;;5048507;28;20273;-63
2023/05/17 14:53:46;;;;;;;5.85;3.72;;;;;;;;;;5063525;28;20217;-64